Time;durP1;ratioP1;P1;durP2;ratioP2;P2;SDS_P1;SDS_P2;PMS_P1;PMS_P2;Temp;Humidity;BMP_temperature;BMP_pressure;BME280_temperature;BME280_humidity;BME280_pressure;Samples;Min_cycle;Max_cycle;Signal;HPM_P1;HPM_P2
2021/04/14 00:00:32;;;;;;;7.88;7.15;;;30.50;94.40;;;;;;5093442;28;20201;-54
2021/04/14 00:03:03;;;;;;;7.20;6.50;;;30.50;94.50;;;;;;5093230;28;20781;-51
2021/04/14 00:05:35;;;;;;;7.40;6.40;;;30.50;94.50;;;;;;5087135;28;20250;-50
2021/04/14 00:08:06;;;;;;;7.20;6.57;;;30.60;94.60;;;;;;5092303;28;20202;-53
2021/04/14 00:10:37;;;;;;;6.75;6.15;;;30.60;94.60;;;;;;5093398;28;20197;-51
2021/04/14 00:13:10;;;;;;;7.55;6.85;;;30.70;94.70;;;;;;5089025;28;20220;-53
2021/04/14 00:15:42;;;;;;;8.25;7.03;;;30.60;95.00;;;;;;5093238;28;20757;-51
2021/04/14 00:18:13;;;;;;;9.00;6.95;;;30.70;94.80;;;;;;5094329;28;20261;-50
2021/04/14 00:20:44;;;;;;;7.65;7.05;;;30.80;94.80;;;;;;5093308;28;20201;-53
2021/04/14 00:23:17;;;;;;;7.70;7.00;;;30.80;94.80;;;;;;5093708;28;20289;-53
2021/04/14 00:25:48;;;;;;;7.63;7.03;;;30.80;94.80;;;;;;5093758;28;20199;-51
2021/04/14 00:28:21;;;;;;;7.50;6.82;;;30.90;94.90;;;;;;5093833;28;20201;-53
2021/04/14 00:30:51;;;;;;;9.65;7.40;;;30.90;95.00;;;;;;5088410;28;20253;-52
2021/04/14 00:33:22;;;;;;;7.38;6.60;;;31.00;95.00;;;;;;5092330;28;20197;-50
2021/04/14 00:35:53;;;;;;;6.97;6.40;;;31.00;95.00;;;;;;5094069;28;20196;-54
2021/04/14 00:38:24;;;;;;;7.22;6.47;;;31.10;95.00;;;;;;5088973;28;20226;-50
2021/04/14 00:40:58;;;;;;;7.72;6.65;;;31.10;95.00;;;;;;5095160;28;20201;-52
2021/04/14 00:43:31;;;;;;;6.88;6.25;;;31.20;94.90;;;;;;5097200;28;20261;-53
2021/04/14 00:46:02;;;;;;;6.47;5.90;;;31.20;94.90;;;;;;5097607;28;20213;-53
2021/04/14 00:48:33;;;;;;;6.68;6.07;;;31.30;94.90;;;;;;5097441;28;20208;-53
2021/04/14 00:51:04;;;;;;;6.35;5.82;;;31.30;94.80;;;;;;5097141;28;20197;-51
2021/04/14 00:53:35;;;;;;;7.10;5.88;;;31.40;94.70;;;;;;5098689;28;20193;-47
2021/04/14 00:56:07;;;;;;;6.10;5.60;;;31.40;94.70;;;;;;5094881;28;20220;-49
2021/04/14 00:58:39;;;;;;;6.10;5.57;;;31.50;94.60;;;;;;5098399;28;20209;-49
2021/04/14 01:01:09;;;;;;;6.13;5.53;;;31.60;94.50;;;;;;5099154;28;20208;-49
2021/04/14 01:03:40;;;;;;;6.55;5.95;;;31.60;94.30;;;;;;5098039;28;20542;-49
2021/04/14 01:06:13;;;;;;;5.55;5.05;;;31.70;94.20;;;;;;5097707;28;20248;-49
2021/04/14 01:08:43;;;;;;;6.03;5.43;;;31.70;94.00;;;;;;5098567;28;20254;-49
2021/04/14 01:11:15;;;;;;;6.18;5.57;;;31.70;94.00;;;;;;5098406;28;20241;-50
2021/04/14 01:13:47;;;;;;;5.47;5.00;;;31.80;94.10;;;;;;5099972;28;20715;-51
2021/04/14 01:16:17;;;;;;;6.35;5.80;;;31.90;93.90;;;;;;5098986;28;20197;-49
2021/04/14 01:18:49;;;;;;;7.85;5.78;;;31.90;93.90;;;;;;5098894;28;20197;-48
2021/04/14 01:21:24;;;;;;;7.18;6.50;;;32.00;93.80;;;;;;5095620;28;20201;-53
2021/04/14 01:23:55;;;;;;;6.65;5.97;;;32.10;93.70;;;;;;5099112;28;20196;-53
2021/04/14 01:26:25;;;;;;;9.73;7.53;;;32.10;93.70;;;;;;5099029;28;20209;-49
2021/04/14 01:28:56;;;;;;;7.25;6.55;;;32.10;92.80;;;;;;5094332;28;20215;-50
2021/04/14 01:31:33;;;;;;;7.07;6.28;;;32.20;92.70;;;;;;5098649;28;20246;-53
2021/04/14 01:34:04;;;;;;;6.97;6.38;;;32.20;92.50;;;;;;5098847;28;20226;-52
2021/04/14 01:36:37;;;;;;;6.60;5.95;;;32.30;92.50;;;;;;5097748;28;20197;-52
2021/04/14 01:39:08;;;;;;;7.68;6.95;;;32.30;92.60;;;;;;5097279;28;20201;-52
2021/04/14 01:41:39;;;;;;;8.05;7.35;;;32.30;91.90;;;;;;5097368;28;20240;-49
2021/04/14 01:44:10;;;;;;;7.40;6.70;;;32.40;91.70;;;;;;5098433;28;20204;-51
2021/04/14 01:46:41;;;;;;;7.90;7.10;;;32.40;91.50;;;;;;5096328;28;20886;-50
2021/04/14 01:49:13;;;;;;;6.70;6.10;;;32.40;91.70;;;;;;5096443;28;20204;-50
2021/04/14 01:51:45;;;;;;;7.55;6.80;;;32.40;91.90;;;;;;5096176;28;20196;-48
2021/04/14 01:54:16;;;;;;;8.15;6.97;;;32.50;92.00;;;;;;5097002;28;20233;-52
2021/04/14 01:56:47;;;;;;;6.88;6.20;;;32.50;91.70;;;;;;5096939;28;20192;-51
2021/04/14 01:59:18;;;;;;;7.40;6.70;;;32.60;91.60;;;;;;5096896;28;20197;-52
2021/04/14 02:01:49;;;;;;;6.47;5.88;;;32.60;91.30;;;;;;5097550;28;20733;-53
2021/04/14 02:04:20;;;;;;;7.20;6.45;;;32.70;91.40;;;;;;5097736;28;20246;-54
2021/04/14 02:06:52;;;;;;;7.18;5.97;;;32.80;91.40;;;;;;5097712;28;20212;-53
2021/04/14 02:09:23;;;;;;;6.72;6.10;;;32.80;91.30;;;;;;5097319;28;20230;-54
2021/04/14 02:11:54;;;;;;;6.50;5.85;;;32.90;91.10;;;;;;5092497;28;20248;-51
2021/04/14 02:14:25;;;;;;;6.75;6.15;;;33.00;90.80;;;;;;5097353;28;20203;-54
2021/04/14 02:16:56;;;;;;;7.05;5.82;;;33.00;90.60;;;;;;5097996;28;20188;-53
2021/04/14 02:19:26;;;;;;;7.15;6.28;;;33.00;90.20;;;;;;5097876;28;20196;-53
2021/04/14 02:21:59;;;;;;;7.90;6.18;;;33.00;89.70;;;;;;5097621;28;20208;-54
2021/04/14 02:24:30;;;;;;;6.05;5.45;;;33.10;89.40;;;;;;5097541;28;20258;-54
2021/04/14 02:27:00;;;;;;;6.50;4.95;;;33.10;89.90;;;;;;5094094;28;20221;-54
2021/04/14 02:29:31;;;;;;;7.03;6.00;;;33.20;90.10;;;;;;5097411;28;20212;-51
2021/04/14 02:32:02;;;;;;;5.93;5.43;;;33.20;90.00;;;;;;5097501;28;20285;-53
2021/04/14 02:34:33;;;;;;;5.63;5.13;;;33.20;90.00;;;;;;5097638;28;20197;-54
2021/04/14 02:37:05;;;;;;;6.38;5.78;;;33.30;90.00;;;;;;5097196;28;20201;-53
2021/04/14 02:39:36;;;;;;;7.13;6.50;;;33.40;90.00;;;;;;5097815;28;20197;-54
2021/04/14 02:42:07;;;;;;;7.00;6.32;;;33.40;88.40;;;;;;5098294;28;20197;-53
2021/04/14 02:44:38;;;;;;;6.93;6.32;;;33.50;86.70;;;;;;5097545;28;20268;-54
2021/04/14 02:47:09;;;;;;;6.32;5.68;;;33.50;86.60;;;;;;5097160;28;20299;-54
2021/04/14 02:49:40;;;;;;;5.63;5.13;;;33.50;87.20;;;;;;5097526;28;20201;-53
2021/04/14 02:52:13;;;;;;;6.65;6.05;;;33.60;87.70;;;;;;5093464;28;20224;-51
2021/04/14 02:54:43;;;;;;;6.63;6.03;;;33.60;86.50;;;;;;5096476;28;20251;-51
2021/04/14 02:57:14;;;;;;;7.13;6.10;;;33.60;85.80;;;;;;5096808;28;20229;-53
2021/04/14 02:59:45;;;;;;;9.18;7.18;;;33.60;85.70;;;;;;5096668;28;20628;-50
2021/04/14 03:02:16;;;;;;;7.35;6.65;;;33.70;85.20;;;;;;5096629;28;20207;-53
2021/04/14 03:04:47;;;;;;;7.32;6.55;;;33.70;84.90;;;;;;5097260;28;20200;-52
2021/04/14 03:07:21;;;;;;;7.45;6.75;;;33.70;85.20;;;;;;5093340;28;20224;-53
2021/04/14 03:09:52;;;;;;;6.15;5.63;;;33.80;83.40;;;;;;5097215;28;20239;-53
2021/04/14 03:12:23;;;;;;;6.07;5.55;;;33.70;83.40;;;;;;5096044;28;20248;-51
2021/04/14 03:14:55;;;;;;;7.35;6.00;;;33.70;83.70;;;;;;5096900;28;20231;-49
2021/04/14 03:17:26;;;;;;;6.97;6.22;;;33.70;83.90;;;;;;5095901;28;20277;-49
2021/04/14 03:19:57;;;;;;;7.88;6.10;;;33.70;84.10;;;;;;5096555;28;20197;-49
2021/04/14 03:22:29;;;;;;;6.32;5.72;;;33.60;83.60;;;;;;5096729;28;20193;-51
2021/04/14 03:25:00;;;;;;;7.85;6.35;;;33.60;83.30;;;;;;5091233;28;20224;-52
2021/04/14 03:27:31;;;;;;;6.65;5.95;;;33.60;81.40;;;;;;5096643;28;20217;-53
2021/04/14 03:30:02;;;;;;;6.80;6.20;;;33.50;80.30;;;;;;5096863;28;20587;-54
2021/04/14 03:32:32;;;;;;;7.03;6.32;;;33.50;79.80;;;;;;5091933;28;20197;-52
2021/04/14 03:35:03;;;;;;;6.28;5.78;;;33.40;79.20;;;;;;5093962;28;20291;-50
2021/04/14 03:37:35;;;;;;;5.30;4.80;;;33.30;78.80;;;;;;5093829;28;20324;-54
2021/04/14 03:40:07;;;;;;;5.72;5.22;;;33.20;79.10;;;;;;5090222;28;20284;-53
2021/04/14 04:06:43;;;;;;;5.13;4.35;;;31.70;79.30;;;;;;5063087;28;20593;-48
2021/04/14 04:50:40;;;;;;;7.78;5.78;;;28.70;87.30;;;;;;5107203;27;20545;-47
2021/04/14 04:53:13;;;;;;;5.15;4.65;;;29.10;93.90;;;;;;5105771;28;20188;-49
2021/04/14 04:55:44;;;;;;;5.10;4.70;;;29.30;93.30;;;;;;5103793;28;20196;-49
2021/04/14 04:58:15;;;;;;;5.38;4.85;;;29.60;92.70;;;;;;5108422;28;20236;-48
2021/04/14 05:00:47;;;;;;;5.47;5.03;;;29.70;92.20;;;;;;5107629;28;20200;-48
2021/04/14 05:03:18;;;;;;;5.32;4.82;;;29.90;91.90;;;;;;5107528;28;20196;-49
2021/04/14 05:05:50;;;;;;;5.57;4.55;;;30.00;91.50;;;;;;5106530;28;20196;-50
2021/04/14 05:08:21;;;;;;;5.40;4.70;;;30.10;90.90;;;;;;5107838;28;20204;-50
2021/04/14 05:10:52;;;;;;;8.02;5.93;;;30.10;91.00;;;;;;5107381;28;20196;-51
2021/04/14 05:13:23;;;;;;;7.68;6.75;;;30.10;90.90;;;;;;5044092;28;20284;-46
2021/04/14 05:15:53;;;;;;;7.95;6.28;;;30.20;90.90;;;;;;5044371;28;20208;-49
2021/04/14 05:18:24;;;;;;;8.48;7.35;;;30.20;90.90;;;;;;5044052;28;20217;-47
2021/04/14 05:20:56;;;;;;;8.07;7.00;;;30.20;91.00;;;;;;5028552;28;20677;-49
2021/04/14 05:23:27;;;;;;;6.80;6.20;;;30.20;91.20;;;;;;5044336;28;20209;-47
2021/04/14 05:25:57;;;;;;;6.57;5.97;;;30.20;91.20;;;;;;5043722;28;20631;-48
2021/04/14 05:28:28;;;;;;;6.13;5.47;;;30.20;91.10;;;;;;5044319;28;20213;-49
2021/04/14 05:30:59;;;;;;;5.30;4.88;;;30.20;91.10;;;;;;5043265;28;20289;-50
2021/04/14 05:33:30;;;;;;;7.20;5.75;;;30.20;90.90;;;;;;5044044;28;20206;-53
2021/04/14 05:36:02;;;;;;;6.18;5.60;;;30.20;90.80;;;;;;5043533;28;20262;-47
2021/04/14 05:38:33;;;;;;;6.25;5.75;;;30.20;90.40;;;;;;5091353;28;20232;-48
2021/04/14 05:41:04;;;;;;;6.25;5.65;;;30.20;90.20;;;;;;5087286;28;20393;-48
2021/04/14 05:43:38;;;;;;;5.95;5.43;;;30.10;90.00;;;;;;5086806;28;20204;-50
2021/04/14 05:46:09;;;;;;;5.47;5.07;;;30.10;89.60;;;;;;5086325;28;20212;-49
2021/04/14 05:48:40;;;;;;;5.78;5.38;;;30.10;89.30;;;;;;5086017;28;20334;-51
2021/04/14 05:51:13;;;;;;;5.72;5.22;;;30.10;89.30;;;;;;5074511;28;20201;-48
2021/04/14 05:53:44;;;;;;;5.07;4.47;;;30.00;89.40;;;;;;5057445;28;20197;-48
2021/04/14 05:56:15;;;;;;;5.72;4.95;;;30.00;89.20;;;;;;5072824;28;20244;-48
2021/04/14 05:58:45;;;;;;;5.47;4.97;;;30.00;89.00;;;;;;5073099;28;20755;-46
2021/04/14 06:01:17;;;;;;;5.03;4.63;;;29.90;88.90;;;;;;5073200;28;20205;-49
2021/04/14 06:03:48;;;;;;;4.97;4.57;;;29.90;88.90;;;;;;5072651;28;20205;-48
2021/04/14 06:06:19;;;;;;;4.72;4.32;;;29.90;89.00;;;;;;5072223;28;20203;-48
2021/04/14 06:08:50;;;;;;;4.72;4.32;;;29.80;89.10;;;;;;5072264;28;20197;-48
2021/04/14 06:11:20;;;;;;;5.13;4.63;;;29.80;89.40;;;;;;5072243;28;20225;-48
2021/04/14 06:13:50;;;;;;;5.28;4.35;;;29.80;89.70;;;;;;5072019;28;20236;-48
2021/04/14 06:16:22;;;;;;;4.97;4.07;;;29.80;90.00;;;;;;5009416;28;20211;-48
2021/04/14 06:18:53;;;;;;;4.00;3.70;;;29.80;90.00;;;;;;5009215;28;20765;-48
2021/04/14 06:21:26;;;;;;;4.25;3.85;;;29.80;90.10;;;;;;5009016;28;20679;-48
2021/04/14 06:23:58;;;;;;;4.07;3.65;;;29.80;90.60;;;;;;5009219;28;20214;-47
2021/04/14 06:26:34;;;;;;;4.35;3.72;;;29.80;90.10;;;;;;5025254;28;20258;-49
2021/04/14 06:29:05;;;;;;;4.15;3.55;;;29.80;90.20;;;;;;5009283;28;20207;-48
2021/04/14 06:31:40;;;;;;;3.17;2.88;;;29.80;90.20;;;;;;5009972;28;20211;-48
2021/04/14 06:34:14;;;;;;;2.92;2.72;;;29.80;90.10;;;;;;5009302;28;20292;-52
2021/04/14 06:36:46;;;;;;;4.72;2.95;;;29.80;90.00;;;;;;4994057;28;20262;-50
2021/04/14 06:39:17;;;;;;;2.88;2.67;;;29.80;90.10;;;;;;5009006;28;20285;-50
2021/04/14 06:42:06;;;;;;;2.80;2.60;;;29.80;90.10;;;;;;5063060;28;20201;-49
2021/04/14 06:44:57;;;;;;;2.95;2.65;;;29.80;90.30;;;;;;5008263;28;20211;-49
2021/04/14 06:47:32;;;;;;;2.97;2.58;;;29.80;90.30;;;;;;5008876;28;20234;-50
2021/04/14 06:50:06;;;;;;;3.40;3.15;;;29.80;90.30;;;;;;5009125;28;20227;-49
2021/04/14 06:52:42;;;;;;;3.17;2.70;;;29.80;90.40;;;;;;5009063;28;20204;-48
2021/04/14 06:55:14;;;;;;;3.10;2.88;;;29.80;90.40;;;;;;5024880;28;20199;-48
2021/04/14 06:57:47;;;;;;;3.08;2.88;;;29.90;90.50;;;;;;5009249;28;20203;-49
2021/04/14 07:00:20;;;;;;;3.05;2.85;;;29.90;90.40;;;;;;4950565;29;20229;-48
2021/04/14 07:02:53;;;;;;;5.00;3.15;;;29.90;90.40;;;;;;4949706;28;20213;-48
2021/04/14 07:05:25;;;;;;;3.45;3.15;;;29.90;90.50;;;;;;4965720;28;20209;-49
2021/04/14 07:07:58;;;;;;;3.22;2.95;;;29.90;90.60;;;;;;4951848;28;20212;-49
2021/04/14 07:10:30;;;;;;;3.88;3.00;;;29.90;90.70;;;;;;5008738;28;20243;-47
2021/04/14 07:13:03;;;;;;;3.47;3.17;;;30.00;90.80;;;;;;5008646;28;20207;-48
2021/04/14 07:15:33;;;;;;;3.13;2.92;;;30.00;90.90;;;;;;5008939;28;20220;-49
2021/04/14 07:18:22;;;;;;;4.40;3.35;;;30.00;90.90;;;;;;5008849;28;20262;-49
2021/04/14 07:20:55;;;;;;;3.40;3.05;;;30.00;91.10;;;;;;4893515;29;20212;-51
2021/04/14 07:23:32;;;;;;;3.80;3.40;;;30.10;91.00;;;;;;4893021;29;20319;-50
2021/04/14 07:26:04;;;;;;;3.58;3.10;;;30.10;91.10;;;;;;4879874;29;20784;-48
2021/04/14 07:28:45;;;;;;;3.10;2.85;;;30.10;91.00;;;;;;4893471;29;20796;-46
2021/04/14 07:31:17;;;;;;;4.20;3.67;;;30.20;91.10;;;;;;4874309;29;20252;-50
2021/04/14 07:33:55;;;;;;;4.05;3.65;;;30.20;91.00;;;;;;4873949;29;20320;-48
2021/04/14 07:36:29;;;;;;;3.90;3.60;;;30.20;90.90;;;;;;4837523;29;20247;-50
2021/04/14 07:39:04;;;;;;;4.35;3.47;;;30.20;91.00;;;;;;4836976;29;20665;-48
2021/04/14 07:41:39;;;;;;;4.20;3.80;;;30.30;90.90;;;;;;4837237;29;20250;-48
2021/04/14 07:44:12;;;;;;;3.42;3.13;;;30.30;90.90;;;;;;4855395;29;20243;-51
2021/04/14 07:46:44;;;;;;;4.95;3.33;;;30.40;91.00;;;;;;4911740;29;20226;-48
2021/04/14 07:49:17;;;;;;;3.90;3.50;;;30.40;91.00;;;;;;4836577;29;20245;-50
2021/04/14 07:51:47;;;;;;;4.05;3.65;;;30.50;91.00;;;;;;4853106;29;20295;-49
2021/04/14 07:54:22;;;;;;;5.05;3.80;;;30.50;90.90;;;;;;4857905;29;20213;-49
2021/04/14 07:56:54;;;;;;;5.97;3.58;;;30.50;90.70;;;;;;4880087;29;20211;-48
2021/04/14 07:59:28;;;;;;;4.32;3.92;;;30.50;90.80;;;;;;4893288;29;20231;-53
2021/04/14 08:02:00;;;;;;;4.63;4.18;;;30.60;90.60;;;;;;4928151;29;20245;-51
2021/04/14 08:04:31;;;;;;;4.53;4.13;;;30.60;90.60;;;;;;4931081;29;20209;-52
2021/04/14 08:07:15;;;;;;;4.30;3.90;;;30.70;90.80;;;;;;4940066;28;20248;-47
2021/04/14 08:09:53;;;;;;;4.38;3.97;;;30.70;91.10;;;;;;4960968;28;20197;-50
2021/04/14 08:12:28;;;;;;;5.07;3.83;;;30.80;91.20;;;;;;4955099;28;20197;-53
2021/04/14 08:15:13;;;;;;;3.97;3.67;;;30.80;91.30;;;;;;5006294;28;20842;-51
2021/04/14 08:17:43;;;;;;;6.10;4.22;;;30.90;91.60;;;;;;4948923;28;20684;-48
2021/04/14 08:20:16;;;;;;;4.38;3.75;;;30.90;91.50;;;;;;4972697;28;20219;-48
2021/04/14 08:22:47;;;;;;;5.20;4.70;;;30.90;91.60;;;;;;5011197;28;20199;-53
2021/04/14 08:25:28;;;;;;;4.47;3.88;;;31.00;91.70;;;;;;5008439;28;20200;-51
2021/04/14 08:28:00;;;;;;;4.82;4.43;;;31.10;91.80;;;;;;5005065;28;20207;-52
2021/04/14 08:30:30;;;;;;;5.90;5.20;;;31.20;91.60;;;;;;5007813;28;20227;-51
2021/04/14 08:33:02;;;;;;;4.65;4.25;;;31.30;91.50;;;;;;5008213;28;20357;-53
2021/04/14 08:35:43;;;;;;;4.88;4.38;;;31.30;91.60;;;;;;5011472;28;20198;-49
2021/04/14 08:38:14;;;;;;;5.43;4.55;;;31.40;91.60;;;;;;5012817;28;20253;-48
2021/04/14 08:40:47;;;;;;;5.10;4.70;;;31.60;91.50;;;;;;5006890;28;20227;-58
2021/04/14 08:43:23;;;;;;;5.32;4.88;;;31.60;91.40;;;;;;4996301;28;20200;-50
2021/04/14 08:46:14;;;;;;;5.15;4.75;;;31.70;91.40;;;;;;5009150;28;20198;-50
2021/04/14 08:48:45;;;;;;;8.43;5.20;;;31.80;91.10;;;;;;5032314;28;20229;-51
2021/04/14 08:51:16;;;;;;;5.43;4.93;;;31.90;90.90;;;;;;5065649;28;20193;-49
2021/04/14 08:53:47;;;;;;;5.63;4.75;;;31.90;90.70;;;;;;5069701;28;20193;-49
2021/04/14 08:56:18;;;;;;;5.55;5.05;;;32.00;90.50;;;;;;5063509;28;20187;-48
2021/04/14 08:58:54;;;;;;;5.80;5.30;;;32.10;90.40;;;;;;5060361;28;20728;-49
2021/04/14 09:01:25;;;;;;;5.60;5.05;;;32.10;90.40;;;;;;5059514;28;20202;-49
2021/04/14 09:03:56;;;;;;;5.63;5.13;;;32.20;90.30;;;;;;5067711;28;20190;-48
2021/04/14 09:06:26;;;;;;;5.65;5.22;;;32.30;90.00;;;;;;5068840;28;20211;-47
2021/04/14 09:08:59;;;;;;;5.85;5.35;;;32.30;89.20;;;;;;5063266;28;20194;-53
2021/04/14 09:11:31;;;;;;;5.10;4.70;;;32.40;88.80;;;;;;5052356;28;20192;-46
2021/04/14 09:14:02;;;;;;;5.03;4.55;;;32.40;88.40;;;;;;5054205;28;20208;-48
2021/04/14 09:16:34;;;;;;;4.70;4.30;;;32.50;88.00;;;;;;5056261;28;20194;-50
2021/04/14 09:19:24;;;;;;;5.55;4.18;;;32.60;87.80;;;;;;5006445;28;20250;-47
2021/04/14 09:21:57;;;;;;;5.07;4.55;;;32.60;88.30;;;;;;5008083;28;20663;-48
2021/04/14 09:24:46;;;;;;;4.65;4.25;;;32.60;87.80;;;;;;5006546;28;20206;-48
2021/04/14 09:27:45;;;;;;;4.75;4.35;;;32.70;87.30;;;;;;4997864;28;20211;-49
2021/04/14 09:30:19;;;;;;;7.28;4.35;;;32.70;86.80;;;;;;5010590;28;20207;-52
2021/04/14 09:32:56;;;;;;;5.20;4.80;;;32.80;87.90;;;;;;5009298;28;20204;-49
2021/04/14 09:35:56;;;;;;;5.22;4.72;;;32.80;87.00;;;;;;5010422;28;20594;-52
2021/04/14 09:38:34;;;;;;;5.97;5.15;;;32.90;86.50;;;;;;5010723;28;20214;-49
2021/04/14 09:41:32;;;;;;;4.47;4.07;;;32.90;86.20;;;;;;5009121;28;20231;-49
2021/04/14 09:44:16;;;;;;;4.53;4.22;;;33.00;85.70;;;;;;5051671;28;20601;-48
2021/04/14 09:47:20;;;;;;;5.03;4.60;;;33.00;85.70;;;;;;5072334;28;20209;-49
2021/04/14 09:49:50;;;;;;;5.20;4.72;;;33.00;85.50;;;;;;5061546;28;20239;-53
2021/04/14 09:52:23;;;;;;;4.68;4.22;;;33.10;85.50;;;;;;5072953;28;20293;-50
2021/04/14 09:54:56;;;;;;;5.13;4.63;;;33.10;85.60;;;;;;5072514;28;20621;-49
2021/04/14 09:57:31;;;;;;;4.88;4.40;;;33.10;85.70;;;;;;5071832;28;20197;-49
2021/04/14 10:00:04;;;;;;;4.55;4.15;;;33.20;85.70;;;;;;5072574;28;20917;-51
2021/04/14 10:02:37;;;;;;;4.97;4.57;;;33.20;85.20;;;;;;5072413;28;20276;-48
2021/04/14 10:05:08;;;;;;;4.88;4.47;;;33.20;85.20;;;;;;4951508;29;20677;-50
2021/04/14 10:07:40;;;;;;;5.13;4.63;;;33.30;85.00;;;;;;4952679;28;20232;-50
2021/04/14 10:10:12;;;;;;;5.45;4.68;;;33.30;84.90;;;;;;4951660;29;20288;-50
2021/04/14 10:12:42;;;;;;;4.80;4.35;;;33.20;84.80;;;;;;4951169;29;20297;-49
2021/04/14 10:15:14;;;;;;;4.93;4.47;;;33.30;85.10;;;;;;4951522;29;20252;-48
2021/04/14 10:17:45;;;;;;;4.85;4.35;;;33.30;85.00;;;;;;4951444;29;20205;-52
2021/04/14 10:20:18;;;;;;;5.20;4.70;;;33.30;85.20;;;;;;4953033;28;20291;-51
2021/04/14 10:22:49;;;;;;;6.20;4.90;;;33.40;84.80;;;;;;4951590;29;20657;-49
2021/04/14 10:25:21;;;;;;;7.00;5.03;;;33.40;84.60;;;;;;4951344;29;20206;-52
2021/04/14 10:27:59;;;;;;;4.80;4.38;;;33.40;84.20;;;;;;4952318;29;20222;-49
2021/04/14 10:30:31;;;;;;;4.65;4.25;;;33.40;84.00;;;;;;4964985;28;20241;-49
2021/04/14 10:33:04;;;;;;;5.10;4.60;;;33.40;83.90;;;;;;4951491;29;20205;-48
2021/04/14 10:35:35;;;;;;;5.05;4.55;;;33.40;83.50;;;;;;4983769;28;20243;-48
2021/04/14 10:38:05;;;;;;;4.90;4.40;;;33.40;83.90;;;;;;5071922;28;20649;-48
2021/04/14 10:40:37;;;;;;;4.40;4.00;;;33.40;84.00;;;;;;5071687;28;20233;-49
2021/04/14 10:43:16;;;;;;;4.43;3.85;;;33.40;84.10;;;;;;5071730;28;20197;-52
2021/04/14 10:46:00;;;;;;;4.63;4.18;;;33.40;84.30;;;;;;5071247;28;20197;-51
2021/04/14 10:48:30;;;;;;;5.32;4.03;;;33.40;84.70;;;;;;5071475;28;20241;-49
2021/04/14 10:51:05;;;;;;;4.90;4.40;;;33.40;84.60;;;;;;5071979;28;20701;-52
2021/04/14 10:53:40;;;;;;;4.35;3.95;;;33.40;84.90;;;;;;5009582;28;20214;-48
2021/04/14 10:56:17;;;;;;;4.57;4.18;;;33.40;84.70;;;;;;5009198;28;20305;-50
2021/04/14 10:58:48;;;;;;;4.97;4.50;;;33.30;84.60;;;;;;5008997;28;20564;-48
2021/04/14 11:01:20;;;;;;;5.28;4.78;;;33.30;84.60;;;;;;4996490;28;20230;-48
2021/04/14 11:04:02;;;;;;;5.85;4.28;;;33.20;84.30;;;;;;5009782;28;20686;-49
2021/04/14 11:06:32;;;;;;;4.25;3.85;;;33.20;84.50;;;;;;4912339;29;20207;-49
2021/04/14 11:09:03;;;;;;;8.93;5.40;;;33.10;84.90;;;;;;4892911;29;20211;-52
2021/04/14 11:11:34;;;;;;;4.72;4.30;;;33.00;85.00;;;;;;4893056;29;20212;-51
2021/04/14 11:14:06;;;;;;;5.10;4.68;;;33.00;85.10;;;;;;4893695;29;20211;-50
2021/04/14 11:16:37;;;;;;;5.18;4.60;;;32.90;85.30;;;;;;4893485;29;20207;-49
2021/04/14 11:19:18;;;;;;;5.13;4.63;;;32.80;85.60;;;;;;4945021;29;20434;-50
2021/04/14 11:21:49;;;;;;;5.32;4.82;;;32.80;86.10;;;;;;4937093;29;20260;-48
2021/04/14 11:24:19;;;;;;;5.22;4.75;;;32.70;85.90;;;;;;4940524;29;20206;-49
2021/04/14 11:26:51;;;;;;;6.30;5.20;;;32.70;86.20;;;;;;4948662;29;20219;-50
2021/04/14 11:29:23;;;;;;;6.15;4.80;;;32.60;86.50;;;;;;4933090;29;20246;-49
2021/04/14 11:31:55;;;;;;;5.20;4.80;;;32.60;86.70;;;;;;5014663;28;20664;-49
2021/04/14 11:34:26;;;;;;;5.45;4.85;;;32.50;87.00;;;;;;4962495;28;20319;-49
2021/04/14 11:36:59;;;;;;;5.50;4.88;;;32.50;87.20;;;;;;4961248;28;20215;-49
2021/04/14 11:39:29;;;;;;;7.43;4.90;;;32.40;87.40;;;;;;4973199;28;20307;-49
2021/04/14 11:42:07;;;;;;;5.25;4.78;;;32.40;87.60;;;;;;5003934;28;20203;-50
2021/04/14 11:44:42;;;;;;;5.38;4.88;;;32.30;88.00;;;;;;5007286;28;20258;-50
2021/04/14 11:47:25;;;;;;;5.70;5.05;;;32.30;88.00;;;;;;5007688;28;20286;-50
2021/04/14 11:49:58;;;;;;;5.32;4.72;;;32.20;88.40;;;;;;5008163;28;20278;-48
2021/04/14 11:52:32;;;;;;;6.45;5.10;;;32.20;88.00;;;;;;5008925;28;20199;-48
2021/04/14 11:55:12;;;;;;;5.28;4.75;;;32.10;88.30;;;;;;5008201;28;20248;-48
2021/04/14 11:57:43;;;;;;;5.78;5.28;;;32.10;88.70;;;;;;5008248;28;20387;-48
2021/04/14 12:00:26;;;;;;;5.72;4.68;;;32.00;88.30;;;;;;5007462;28;20212;-48
2021/04/14 12:03:01;;;;;;;5.35;4.70;;;32.00;89.00;;;;;;4996966;28;20882;-48
2021/04/14 12:05:31;;;;;;;5.78;4.80;;;31.90;88.70;;;;;;5041706;28;20237;-49
2021/04/14 12:08:01;;;;;;;6.93;4.70;;;31.90;88.80;;;;;;5070964;28;20211;-49
2021/04/14 12:10:32;;;;;;;5.88;4.78;;;31.90;88.90;;;;;;5069878;28;20217;-48
2021/04/14 12:13:02;;;;;;;5.35;4.90;;;31.80;89.10;;;;;;5070048;28;20205;-50
2021/04/14 12:15:32;;;;;;;5.88;5.22;;;31.80;89.20;;;;;;5069728;28;20209;-53
2021/04/14 12:18:04;;;;;;;5.75;5.20;;;31.70;89.40;;;;;;5069443;28;20667;-51
2021/04/14 12:20:34;;;;;;;6.47;4.93;;;31.70;89.70;;;;;;5069594;28;20209;-51
2021/04/14 12:23:04;;;;;;;6.05;5.45;;;31.70;89.70;;;;;;5069571;28;20226;-52
2021/04/14 12:25:35;;;;;;;6.78;6.13;;;31.60;89.80;;;;;;5068864;28;20572;-50
2021/04/14 12:28:05;;;;;;;6.65;5.90;;;31.60;89.90;;;;;;5069805;28;20202;-51
2021/04/14 12:30:36;;;;;;;6.60;5.95;;;31.60;90.00;;;;;;5069549;28;20209;-52
2021/04/14 12:33:07;;;;;;;9.20;6.60;;;31.60;90.00;;;;;;5069158;28;20633;-54
2021/04/14 12:35:38;;;;;;;8.55;5.55;;;31.50;90.10;;;;;;5056749;28;20204;-54
2021/04/14 12:38:08;;;;;;;6.63;6.03;;;31.50;90.10;;;;;;5069552;28;20217;-55
2021/04/14 12:40:38;;;;;;;8.38;6.18;;;31.40;90.10;;;;;;5069666;28;20584;-51
2021/04/14 12:43:09;;;;;;;7.28;6.57;;;31.40;90.20;;;;;;5069303;28;20842;-53
2021/04/14 12:45:40;;;;;;;5.50;4.88;;;31.40;90.30;;;;;;5069041;28;20654;-52
2021/04/14 12:48:13;;;;;;;6.43;5.32;;;31.30;90.40;;;;;;5069277;28;20197;-52
2021/04/14 12:51:07;;;;;;;6.75;4.88;;;31.30;90.60;;;;;;5069172;28;20210;-52
2021/04/14 12:53:40;;;;;;;7.40;5.80;;;31.30;90.90;;;;;;5069208;28;20228;-54
2021/04/14 12:56:11;;;;;;;6.60;6.00;;;31.30;90.70;;;;;;5056869;28;20194;-54
2021/04/14 12:58:42;;;;;;;6.97;6.30;;;31.20;90.70;;;;;;5068945;28;20198;-56
2021/04/14 13:01:12;;;;;;;7.07;6.47;;;31.20;90.80;;;;;;5071652;28;20263;-53
2021/04/14 13:03:49;;;;;;;7.55;6.35;;;31.20;90.80;;;;;;5072946;28;20211;-52
2021/04/14 13:06:32;;;;;;;7.63;6.95;;;31.10;90.90;;;;;;5061075;28;20291;-53
2021/04/14 13:09:06;;;;;;;7.97;6.88;;;31.10;90.90;;;;;;5073005;28;20575;-56
2021/04/14 13:11:39;;;;;;;8.70;7.30;;;31.10;91.00;;;;;;5073177;28;20193;-53
2021/04/14 13:14:10;;;;;;;7.90;5.80;;;31.10;91.10;;;;;;5070778;28;20258;-54
2021/04/14 13:16:43;;;;;;;6.20;5.60;;;31.10;91.00;;;;;;5072809;28;20729;-53
2021/04/14 13:19:14;;;;;;;6.97;5.78;;;31.00;91.20;;;;;;5010306;28;20214;-55
2021/04/14 13:21:51;;;;;;;7.18;5.07;;;31.00;91.20;;;;;;5010634;28;20628;-54
2021/04/14 13:24:24;;;;;;;10.10;6.10;;;31.00;91.30;;;;;;4965889;28;20236;-56
2021/04/14 13:26:59;;;;;;;6.57;5.90;;;31.00;91.40;;;;;;4952081;29;20217;-50
2021/04/14 13:29:31;;;;;;;8.73;6.82;;;31.00;91.40;;;;;;4951868;29;20363;-55
2021/04/14 13:32:06;;;;;;;7.63;6.47;;;31.00;91.40;;;;;;4951771;29;20212;-56
2021/04/14 13:34:43;;;;;;;6.60;5.60;;;31.00;91.50;;;;;;4951473;29;20213;-54
2021/04/14 13:37:28;;;;;;;10.68;6.43;;;31.00;91.50;;;;;;4982055;28;20207;-52
2021/04/14 13:40:01;;;;;;;6.80;6.20;;;31.00;91.40;;;;;;5028682;28;20273;-50
2021/04/14 13:42:37;;;;;;;6.35;5.75;;;30.90;91.40;;;;;;5010396;28;20202;-52
2021/04/14 13:45:13;;;;;;;7.60;4.97;;;30.90;91.50;;;;;;5022790;28;20703;-51
2021/04/14 13:47:48;;;;;;;7.63;5.20;;;30.90;91.50;;;;;;5010995;28;20199;-53
2021/04/14 13:50:22;;;;;;;5.05;4.57;;;30.90;91.60;;;;;;5010165;28;20226;-53
2021/04/14 13:52:53;;;;;;;7.82;5.68;;;30.90;91.60;;;;;;5009954;28;20206;-54
2021/04/14 13:55:23;;;;;;;5.93;5.32;;;30.90;91.60;;;;;;5009969;28;20198;-55
2021/04/14 13:57:57;;;;;;;6.40;5.80;;;30.90;91.60;;;;;;5009895;28;20200;-52
2021/04/14 14:00:29;;;;;;;7.38;5.95;;;30.80;91.70;;;;;;4952773;28;20201;-53
2021/04/14 14:03:04;;;;;;;6.53;5.45;;;30.80;91.70;;;;;;4958673;28;20705;-52
2021/04/14 14:05:38;;;;;;;6.55;5.95;;;30.80;91.70;;;;;;4895507;29;20202;-51
2021/04/14 14:08:12;;;;;;;8.55;5.80;;;30.90;91.80;;;;;;4894087;29;20215;-54
2021/04/14 14:10:44;;;;;;;6.80;6.18;;;30.80;91.80;;;;;;4896466;29;20222;-51
2021/04/14 14:13:21;;;;;;;7.30;6.70;;;30.80;91.80;;;;;;4916835;28;20216;-52
2021/04/14 14:16:01;;;;;;;7.50;6.65;;;30.80;91.90;;;;;;4951855;28;20636;-51
2021/04/14 14:18:31;;;;;;;8.73;6.63;;;30.80;91.90;;;;;;4954871;28;20308;-53
2021/04/14 14:21:06;;;;;;;6.93;6.15;;;30.80;91.80;;;;;;4952991;28;20216;-54
2021/04/14 14:23:38;;;;;;;6.93;6.18;;;30.70;91.90;;;;;;4953428;28;20289;-51